Allegro — J8B5341 — position and weather

sailwx.info

Track history (hours):
 
Tides and Currents Weather Stations Pressure Air Temp Water Temp Dewpoint Dewpoint Depression Visibility Wind Speed Wind Dir Waves Ship Positions

Allegro

Last reported at 2018-Jul-23 03:55 UTC. Time now 2018-Jul-23 04:14 UTC.
Position N 26°08' W 080°04'.

Length 100 m; draft 3.7 m.

Type: Ship. MMSI: 376609000.

Date/timePositionNaut miles runAvg speedWind from/ knotsBaromVisibWave heightAir tempDewpointWater temp
2018-Jul-23 03:55N 26°08' W 080°04'0 0.0
2018-Jul-23 03:19N 26°08' W 080°04'0 0.1
2018-Jul-23 02:55N 26°08' W 080°04'0 0.3
2018-Jul-23 02:28N 26°07' W 080°04'0 0.3
2018-Jul-23 01:57N 26°08' W 080°04'0 0.1
2018-Jul-23 01:21N 26°08' W 080°04'0 0.3
2018-Jul-23 01:00N 26°08' W 080°04'0 0.0
2018-Jul-23 00:27N 26°08' W 080°04'0 0.0
2018-Jul-23 00:00N 26°08' W 080°04'0 0.0
2018-Jul-22 23:26N 26°08' W 080°04'0 0.0
2018-Jul-22 22:59N 26°08' W 080°04'0 0.0
2018-Jul-22 22:29N 26°08' W 080°04'0 0.0
2018-Jul-22 21:59N 26°08' W 080°04'0 0.0
2018-Jul-22 21:25N 26°08' W 080°04'0 0.0
2018-Jul-22 20:55N 26°08' W 080°04'0 0.0
2018-Jul-22 20:25N 26°08' W 080°04'0 0.0
2018-Jul-22 19:58N 26°08' W 080°04'0 0.2
2018-Jul-22 19:28N 26°08' W 080°04'0 0.4
2018-Jul-22 19:00N 26°08' W 080°04'0 0.0
2018-Jul-22 18:21N 26°08' W 080°04'0 0.0
2018-Jul-22 18:00N 26°08' W 080°04'0 0.1
2018-Jul-22 17:30N 26°08' W 080°04'0 0.0
2018-Jul-22 16:56N 26°08' W 080°04'0 0.0
2018-Jul-22 16:23N 26°08' W 080°04'0 0.0
2018-Jul-22 16:01N 26°08' W 080°04'0 0.0
2018-Jul-22 15:01N 26°08' W 080°04'0 0.0
2018-Jul-22 14:30N 26°08' W 080°04'0 0.0
2018-Jul-22 14:01N 26°08' W 080°04'0 0.0
2018-Jul-22 13:31N 26°08' W 080°04'0 0.1
2018-Jul-22 13:01N 26°08' W 080°04'3 5.9
2018-Jul-22 12:31N 26°08' W 080°01'510.1
2018-Jul-22 12:00N 26°08' W 079°55'510.4
2018-Jul-22 11:30N 26°08' W 079°50'5 9.9
2018-Jul-22 11:00N 26°08' W 079°44'5 9.8
2018-Jul-22 10:30N 26°08' W 079°39'5 9.8
2018-Jul-22 09:59N 26°08' W 079°33'5 9.9
2018-Jul-22 09:30N 26°09' W 079°28'11 0.3
2018-Jul-21 02:09N 26°19' W 079°23'1012.0
2018-Jul-21 01:18N 26°16' W 079°34'412.3
2018-Jul-21 01:00N 26°15' W 079°38'612.4
2018-Jul-21 00:30N 26°13' W 079°44'612.6
2018-Jul-21 00:00N 26°11' W 079°51'612.6
2018-Jul-20 23:30N 26°09' W 079°57'612.9
2018-Jul-20 23:00N 26°07' W 080°04'3 7.0
2018-Jul-20 22:30N 26°04' W 080°07'0 0.1
2018-Jul-20 21:58N 26°04' W 080°07'0 0.0
2018-Jul-20 21:25N 26°04' W 080°07'0 0.0
2018-Jul-20 20:54N 26°04' W 080°07'0 0.0
2018-Jul-20 20:24N 26°04' W 080°07'0 0.0
2018-Jul-20 20:00N 26°04' W 080°07'0 0.0
2018-Jul-20 19:30N 26°04' W 080°07'0 0.0
2018-Jul-20 19:00N 26°04' W 080°07'0 0.0
2018-Jul-20 18:23N 26°04' W 080°07'0 0.0
2018-Jul-20 17:50N 26°04' W 080°07'0 0.0
2018-Jul-20 17:29N 26°04' W 080°07'0 0.0
2018-Jul-20 16:59N 26°04' W 080°07'0 0.0
2018-Jul-20 16:29N 26°04' W 080°07'0 0.0
2018-Jul-20 15:52N 26°04' W 080°07'1 3.0
2018-Jul-20 15:30N 26°05' W 080°07'3 6.1
2018-Jul-20 15:00N 26°07' W 080°04'0 0.4
2018-Jul-20 14:17N 26°08' W 080°04'0 0.0
2018-Jul-20 13:59N 26°08' W 080°04'0 0.0
2018-Jul-20 13:28N 26°08' W 080°04'0 0.0
2018-Jul-20 12:55N 26°08' W 080°04'0 0.0
2018-Jul-20 12:22N 26°08' W 080°04'0 0.0
2018-Jul-20 11:49N 26°08' W 080°04'0 0.0
2018-Jul-20 11:28N 26°08' W 080°04'0 0.0
2018-Jul-20 10:57N 26°08' W 080°04'0 0.0
2018-Jul-20 10:24N 26°08' W 080°04'0 0.0
2018-Jul-20 09:51N 26°08' W 080°04'0 0.0
2018-Jul-20 09:30N 26°08' W 080°04'0 0.0
2018-Jul-20 09:00N 26°08' W 080°04'0 0.0
2018-Jul-20 08:23N 26°08' W 080°04'0 0.0
2018-Jul-20 07:53N 26°08' W 080°04'0 0.0
2018-Jul-20 07:20N 26°08' W 080°04'0 0.1
2018-Jul-20 06:59N 26°08' W 080°04'0 0.0
2018-Jul-20 06:29N 26°08' W 080°04'0 0.0
2018-Jul-20 05:55N 26°08' W 080°04'0 0.0
2018-Jul-20 05:22N 26°08' W 080°04'0 0.0
2018-Jul-20 04:58N 26°08' W 080°04'0 0.0
2018-Jul-20 04:28N 26°08' W 080°04'0 0.0
2018-Jul-20 03:54N 26°08' W 080°04'0 0.0
2018-Jul-20 03:21N 26°08' W 080°04'0 0.0
2018-Jul-20 02:51N 26°08' W 080°04'0 0.0
2018-Jul-20 02:30N 26°08' W 080°04'0 0.1
2018-Jul-20 02:00N 26°08' W 080°04'0 0.0
2018-Jul-20 01:26N 26°08' W 080°04'0 0.0
2018-Jul-20 00:53N 26°08' W 080°04'0 0.0
2018-Jul-20 00:20N 26°08' W 080°04'0 0.0
2018-Jul-19 23:59N 26°08' W 080°04'0 0.0
2018-Jul-19 23:28N 26°08' W 080°04'0 0.0
2018-Jul-19 22:55N 26°08' W 080°04'0 0.0
2018-Jul-19 22:22N 26°08' W 080°04'0 0.1
2018-Jul-19 21:58N 26°08' W 080°04'0 0.1
2018-Jul-19 21:28N 26°08' W 080°04'0 0.0
2018-Jul-19 20:57N 26°08' W 080°04'0 0.1
2018-Jul-19 20:30N 26°08' W 080°04'1 2.6
2018-Jul-19 20:00N 26°08' W 080°03'3 5.8
2018-Jul-19 19:30N 26°08' W 080°00'5 9.3
2018-Jul-19 19:00N 26°09' W 079°55'5 9.6
2018-Jul-19 18:30N 26°10' W 079°50'5 9.6
2018-Jul-19 18:00N 26°11' W 079°45'5 9.9
2018-Jul-19 17:30N 26°12' W 079°39'510.1
2018-Jul-19 17:00N 26°13' W 079°34'5 9.9
2018-Jul-19 16:30N 26°14' W 079°28'  
2018-Jul-17 01:43N 26°17' W 079°29'312.2
2018-Jul-17 01:26N 26°16' W 079°33'512.3
2018-Jul-17 01:00N 26°14' W 079°39'612.5
2018-Jul-17 00:29N 26°12' W 079°45'1312.8
2018-Jul-16 23:30N 26°08' W 079°58'611.7
2018-Jul-16 23:00N 26°06' W 080°04'3 5.6
2018-Jul-16 22:30N 26°04' W 080°07'0 0.0
2018-Jul-16 22:00N 26°04' W 080°07'0 0.0
2018-Jul-16 21:30N 26°04' W 080°07'0 0.0
2018-Jul-16 20:57N 26°04' W 080°07'0 0.0
2018-Jul-16 20:24N 26°04' W 080°07'0 0.0
2018-Jul-16 19:50N 26°04' W 080°07'0 0.0
2018-Jul-16 19:29N 26°04' W 080°07'0 0.0
2018-Jul-16 18:56N 26°04' W 080°07'0 0.0
2018-Jul-16 18:26N 26°04' W 080°07'0 0.0
2018-Jul-16 17:58N 26°04' W 080°07'0 0.0
2018-Jul-16 17:28N 26°04' W 080°07'0 0.0
2018-Jul-16 16:58N 26°04' W 080°07'0 0.0
2018-Jul-16 16:28N 26°04' W 080°07'0 0.0
2018-Jul-16 15:55N 26°04' W 080°07'0 0.0
2018-Jul-16 15:30N 26°04' W 080°07'0 0.0
2018-Jul-16 15:00N 26°04' W 080°07'0 0.2
2018-Jul-16 14:30N 26°04' W 080°07'3 6.0
2018-Jul-16 14:00N 26°06' W 080°04'3 6.5
2018-Jul-16 13:30N 26°08' W 080°01'3 5.6
2018-Jul-16 13:00N 26°10' W 079°59'2 3.2
2018-Jul-16 12:30N 26°11' W 079°58'1 2.9
2018-Jul-16 12:00N 26°12' W 079°57'5 9.2
2018-Jul-16 11:30N 26°12' W 079°51'4 8.7
2018-Jul-16 11:00N 26°13' W 079°47'4 8.9
2018-Jul-16 10:31N 26°15' W 079°42'5 9.1
2018-Jul-16 09:57N 26°17' W 079°37'4 9.3
2018-Jul-16 09:30N 26°19' W 079°33'612.6
2018-Jul-16 09:00N 26°15' W 079°28'612.5
2018-Jul-16 08:30N 26°11' W 079°22'9 0.3
2018-Jul-14 23:16N 26°07' W 079°31'310.7
2018-Jul-14 22:59N 26°07' W 079°35'510.3
2018-Jul-14 22:30N 26°07' W 079°40'510.6
2018-Jul-14 22:00N 26°07' W 079°46'611.3
2018-Jul-14 21:30N 26°06' W 079°52'611.2
2018-Jul-14 21:00N 26°05' W 079°58'511.0
2018-Jul-14 20:30N 26°05' W 080°04'2 4.6
2018-Jul-14 20:00N 26°04' W 080°07'0 0.3
2018-Jul-14 19:23N 26°04' W 080°07'0 0.0
2018-Jul-14 18:49N 26°04' W 080°07'0 0.0
2018-Jul-14 18:28N 26°04' W 080°07'0 0.0
2018-Jul-14 17:58N 26°04' W 080°07'0 0.0
2018-Jul-14 17:25N 26°04' W 080°07'0 0.0
2018-Jul-14 16:52N 26°04' W 080°07'0 0.0
2018-Jul-14 16:30N 26°04' W 080°07'0 0.0
2018-Jul-14 16:00N 26°04' W 080°07'0 0.0
2018-Jul-14 15:24N 26°04' W 080°07'0 0.0
2018-Jul-14 14:54N 26°04' W 080°07'0 0.1
2018-Jul-14 14:30N 26°04' W 080°07'4 4.0
2018-Jul-14 13:26N 26°08' W 080°04'0 0.1
2018-Jul-14 12:50N 26°08' W 080°04'0 0.0
2018-Jul-14 12:28N 26°08' W 080°04'0 0.0
2018-Jul-14 11:58N 26°08' W 080°04'0 0.0
2018-Jul-14 11:25N 26°08' W 080°04'0 0.0
2018-Jul-14 10:52N 26°08' W 080°04'0 0.0
2018-Jul-14 10:18N 26°08' W 080°04'0 0.0
2018-Jul-14 10:00N 26°08' W 080°04'0 0.0
2018-Jul-14 09:30N 26°08' W 080°04'0 0.0
2018-Jul-14 08:59N 26°08' W 080°04'0 0.0
2018-Jul-14 08:21N 26°08' W 080°04'0 0.0
2018-Jul-14 07:47N 26°08' W 080°04'0 0.0
2018-Jul-14 07:29N 26°08' W 080°04'0 0.0
2018-Jul-14 06:59N 26°08' W 080°04'0 0.0
2018-Jul-14 06:23N 26°08' W 080°04'0 0.0
2018-Jul-14 05:49N 26°08' W 080°04'0 0.0
2018-Jul-14 05:28N 26°08' W 080°04'0 0.0
2018-Jul-14 04:58N 26°08' W 080°04'0 0.0
2018-Jul-14 04:25N 26°08' W 080°04'0 0.0
2018-Jul-14 03:52N 26°08' W 080°04'0 0.0
2018-Jul-14 03:30N 26°08' W 080°04'0 0.0
2018-Jul-14 03:00N 26°08' W 080°04'0 0.0
2018-Jul-14 02:24N 26°08' W 080°04'0 0.0
2018-Jul-14 01:54N 26°08' W 080°04'0 0.0
2018-Jul-14 01:17N 26°08' W 080°04'0 0.1
2018-Jul-14 00:59N 26°08' W 080°04'0 0.0
2018-Jul-14 00:29N 26°08' W 080°04'0 0.1
2018-Jul-13 23:56N 26°08' W 080°04'0 0.0
2018-Jul-13 23:23N 26°08' W 080°04'0 0.1
2018-Jul-13 22:49N 26°08' W 080°04'0 0.1
2018-Jul-13 22:28N 26°08' W 080°04'0 0.0
2018-Jul-13 21:58N 26°08' W 080°04'0 0.0
2018-Jul-13 21:22N 26°08' W 080°04'0 0.0
2018-Jul-13 20:52N 26°08' W 080°04'0 0.0
2018-Jul-13 20:30N 26°08' W 080°04'0 0.0
2018-Jul-13 20:00N 26°08' W 080°04'0 0.0
2018-Jul-13 19:27N 26°08' W 080°04'0 0.0
2018-Jul-13 18:54N 26°08' W 080°04'0 0.0
2018-Jul-13 18:20N 26°08' W 080°04'0 0.1
2018-Jul-13 17:59N 26°08' W 080°04'0 0.0
2018-Jul-13 17:29N 26°08' W 080°04'0 0.0
2018-Jul-13 16:56N 26°08' W 080°04'0 0.0
2018-Jul-13 16:23N 26°08' W 080°04'0 0.0
2018-Jul-13 15:49N 26°08' W 080°04'0 0.0
2018-Jul-13 15:28N 26°08' W 080°04'0 0.1
2018-Jul-13 14:58N 26°08' W 080°04'0 0.0
2018-Jul-13 13:52N 26°08' W 080°04'0 0.0
2018-Jul-13 13:18N 26°08' W 080°04'0 0.0
2018-Jul-13 13:00N 26°08' W 080°04'0 0.0
2018-Jul-13 12:27N 26°08' W 080°04'0 0.0
2018-Jul-13 11:54N 26°08' W 080°04'0 0.0
2018-Jul-13 11:20N 26°08' W 080°04'0 0.0
2018-Jul-13 10:59N 26°08' W 080°04'0 0.0
2018-Jul-13 10:29N 26°08' W 080°04'0 0.0
2018-Jul-13 09:56N 26°08' W 080°04'0 0.0
2018-Jul-13 09:23N 26°08' W 080°04'0 0.0
2018-Jul-13 08:49N 26°08' W 080°04'0 0.0
2018-Jul-13 08:28N 26°08' W 080°04'0 0.0
2018-Jul-13 07:58N 26°08' W 080°04'0 0.0
2018-Jul-13 07:28N 26°08' W 080°04'0 0.0
2018-Jul-13 06:52N 26°08' W 080°04'0 0.0
2018-Jul-13 06:30N 26°08' W 080°04'0 0.0
2018-Jul-13 06:00N 26°08' W 080°04'0 0.0
2018-Jul-13 05:27N 26°08' W 080°04'0 0.0
2018-Jul-13 04:54N 26°08' W 080°04'0 0.0
2018-Jul-13 04:30N 26°08' W 080°04'0 0.0
2018-Jul-13 03:56N 26°08' W 080°04'  
Track history (hours):
 
Tides and Currents Weather Stations Pressure Air Temp Water Temp Dewpoint Dewpoint Depression Visibility Wind Speed Wind Dir Waves Ship Positions

Allegro

Last reported at 2018-Jul-23 03:55 UTC. Time now 2018-Jul-23 04:14 UTC.
Position N 26°08' W 080°04'.

Length 100 m; draft 3.7 m.

Type: Ship. MMSI: 376609000.

Date/timePositionNaut miles runAvg speedWind from/ knotsBaromVisibWave heightAir tempDewpointWater temp
2018-Jul-23 03:55N 26°08' W 080°04'0 0.0
2018-Jul-23 03:19N 26°08' W 080°04'0 0.1
2018-Jul-23 02:55N 26°08' W 080°04'0 0.3
2018-Jul-23 02:28N 26°07' W 080°04'0 0.3
2018-Jul-23 01:57N 26°08' W 080°04'0 0.1
2018-Jul-23 01:21N 26°08' W 080°04'0 0.3
2018-Jul-23 01:00N 26°08' W 080°04'0 0.0
2018-Jul-23 00:27N 26°08' W 080°04'0 0.0
2018-Jul-23 00:00N 26°08' W 080°04'0 0.0
2018-Jul-22 23:26N 26°08' W 080°04'0 0.0
2018-Jul-22 22:59N 26°08' W 080°04'0 0.0
2018-Jul-22 22:29N 26°08' W 080°04'0 0.0
2018-Jul-22 21:59N 26°08' W 080°04'0 0.0
2018-Jul-22 21:25N 26°08' W 080°04'0 0.0
2018-Jul-22 20:55N 26°08' W 080°04'0 0.0
2018-Jul-22 20:25N 26°08' W 080°04'0 0.0
2018-Jul-22 19:58N 26°08' W 080°04'0 0.2
2018-Jul-22 19:28N 26°08' W 080°04'0 0.4
2018-Jul-22 19:00N 26°08' W 080°04'0 0.0
2018-Jul-22 18:21N 26°08' W 080°04'0 0.0
2018-Jul-22 18:00N 26°08' W 080°04'0 0.1
2018-Jul-22 17:30N 26°08' W 080°04'0 0.0
2018-Jul-22 16:56N 26°08' W 080°04'0 0.0
2018-Jul-22 16:23N 26°08' W 080°04'0 0.0
2018-Jul-22 16:01N 26°08' W 080°04'0 0.0
2018-Jul-22 15:01N 26°08' W 080°04'0 0.0
2018-Jul-22 14:30N 26°08' W 080°04'0 0.0
2018-Jul-22 14:01N 26°08' W 080°04'0 0.0
2018-Jul-22 13:31N 26°08' W 080°04'0 0.1
2018-Jul-22 13:01N 26°08' W 080°04'3 5.9
2018-Jul-22 12:31N 26°08' W 080°01'510.1
2018-Jul-22 12:00N 26°08' W 079°55'510.4
2018-Jul-22 11:30N 26°08' W 079°50'5 9.9
2018-Jul-22 11:00N 26°08' W 079°44'5 9.8
2018-Jul-22 10:30N 26°08' W 079°39'5 9.8
2018-Jul-22 09:59N 26°08' W 079°33'5 9.9
2018-Jul-22 09:30N 26°09' W 079°28'11 0.3
2018-Jul-21 02:09N 26°19' W 079°23'1012.0
2018-Jul-21 01:18N 26°16' W 079°34'412.3
2018-Jul-21 01:00N 26°15' W 079°38'612.4
2018-Jul-21 00:30N 26°13' W 079°44'612.6
2018-Jul-21 00:00N 26°11' W 079°51'612.6
2018-Jul-20 23:30N 26°09' W 079°57'612.9
2018-Jul-20 23:00N 26°07' W 080°04'3 7.0
2018-Jul-20 22:30N 26°04' W 080°07'0 0.1
2018-Jul-20 21:58N 26°04' W 080°07'0 0.0
2018-Jul-20 21:25N 26°04' W 080°07'0 0.0
2018-Jul-20 20:54N 26°04' W 080°07'0 0.0
2018-Jul-20 20:24N 26°04' W 080°07'0 0.0
2018-Jul-20 20:00N 26°04' W 080°07'0 0.0
2018-Jul-20 19:30N 26°04' W 080°07'0 0.0
2018-Jul-20 19:00N 26°04' W 080°07'0 0.0
2018-Jul-20 18:23N 26°04' W 080°07'0 0.0
2018-Jul-20 17:50N 26°04' W 080°07'0 0.0
2018-Jul-20 17:29N 26°04' W 080°07'0 0.0
2018-Jul-20 16:59N 26°04' W 080°07'0 0.0
2018-Jul-20 16:29N 26°04' W 080°07'0 0.0
2018-Jul-20 15:52N 26°04' W 080°07'1 3.0
2018-Jul-20 15:30N 26°05' W 080°07'3 6.1
2018-Jul-20 15:00N 26°07' W 080°04'0 0.4
2018-Jul-20 14:17N 26°08' W 080°04'0 0.0
2018-Jul-20 13:59N 26°08' W 080°04'0 0.0
2018-Jul-20 13:28N 26°08' W 080°04'0 0.0
2018-Jul-20 12:55N 26°08' W 080°04'0 0.0
2018-Jul-20 12:22N 26°08' W 080°04'0 0.0
2018-Jul-20 11:49N 26°08' W 080°04'0 0.0
2018-Jul-20 11:28N 26°08' W 080°04'0 0.0
2018-Jul-20 10:57N 26°08' W 080°04'0 0.0
2018-Jul-20 10:24N 26°08' W 080°04'0 0.0
2018-Jul-20 09:51N 26°08' W 080°04'0 0.0
2018-Jul-20 09:30N 26°08' W 080°04'0 0.0
2018-Jul-20 09:00N 26°08' W 080°04'0 0.0
2018-Jul-20 08:23N 26°08' W 080°04'0 0.0
2018-Jul-20 07:53N 26°08' W 080°04'0 0.0
2018-Jul-20 07:20N 26°08' W 080°04'0 0.1
2018-Jul-20 06:59N 26°08' W 080°04'0 0.0
2018-Jul-20 06:29N 26°08' W 080°04'0 0.0
2018-Jul-20 05:55N 26°08' W 080°04'0 0.0
2018-Jul-20 05:22N 26°08' W 080°04'0 0.0
2018-Jul-20 04:58N 26°08' W 080°04'0 0.0
2018-Jul-20 04:28N 26°08' W 080°04'0 0.0
2018-Jul-20 03:54N 26°08' W 080°04'0 0.0
2018-Jul-20 03:21N 26°08' W 080°04'0 0.0
2018-Jul-20 02:51N 26°08' W 080°04'0 0.0
2018-Jul-20 02:30N 26°08' W 080°04'0 0.1
2018-Jul-20 02:00N 26°08' W 080°04'0 0.0
2018-Jul-20 01:26N 26°08' W 080°04'0 0.0
2018-Jul-20 00:53N 26°08' W 080°04'0 0.0
2018-Jul-20 00:20N 26°08' W 080°04'0 0.0
2018-Jul-19 23:59N 26°08' W 080°04'0 0.0
2018-Jul-19 23:28N 26°08' W 080°04'0 0.0
2018-Jul-19 22:55N 26°08' W 080°04'0 0.0
2018-Jul-19 22:22N 26°08' W 080°04'0 0.1
2018-Jul-19 21:58N 26°08' W 080°04'0 0.1
2018-Jul-19 21:28N 26°08' W 080°04'0 0.0
2018-Jul-19 20:57N 26°08' W 080°04'0 0.1
2018-Jul-19 20:30N 26°08' W 080°04'1 2.6
2018-Jul-19 20:00N 26°08' W 080°03'3 5.8
2018-Jul-19 19:30N 26°08' W 080°00'5 9.3
2018-Jul-19 19:00N 26°09' W 079°55'5 9.6
2018-Jul-19 18:30N 26°10' W 079°50'5 9.6
2018-Jul-19 18:00N 26°11' W 079°45'5 9.9
2018-Jul-19 17:30N 26°12' W 079°39'510.1
2018-Jul-19 17:00N 26°13' W 079°34'5 9.9
2018-Jul-19 16:30N 26°14' W 079°28'  
2018-Jul-17 01:43N 26°17' W 079°29'312.2
2018-Jul-17 01:26N 26°16' W 079°33'512.3
2018-Jul-17 01:00N 26°14' W 079°39'612.5
2018-Jul-17 00:29N 26°12' W 079°45'1312.8
2018-Jul-16 23:30N 26°08' W 079°58'611.7
2018-Jul-16 23:00N 26°06' W 080°04'3 5.6
2018-Jul-16 22:30N 26°04' W 080°07'0 0.0
2018-Jul-16 22:00N 26°04' W 080°07'0 0.0
2018-Jul-16 21:30N 26°04' W 080°07'0 0.0
2018-Jul-16 20:57N 26°04' W 080°07'0 0.0
2018-Jul-16 20:24N 26°04' W 080°07'0 0.0
2018-Jul-16 19:50N 26°04' W 080°07'0 0.0
2018-Jul-16 19:29N 26°04' W 080°07'0 0.0
2018-Jul-16 18:56N 26°04' W 080°07'0 0.0
2018-Jul-16 18:26N 26°04' W 080°07'0 0.0
2018-Jul-16 17:58N 26°04' W 080°07'0 0.0
2018-Jul-16 17:28N 26°04' W 080°07'0 0.0
2018-Jul-16 16:58N 26°04' W 080°07'0 0.0
2018-Jul-16 16:28N 26°04' W 080°07'0 0.0
2018-Jul-16 15:55N 26°04' W 080°07'0 0.0
2018-Jul-16 15:30N 26°04' W 080°07'0 0.0
2018-Jul-16 15:00N 26°04' W 080°07'0 0.2
2018-Jul-16 14:30N 26°04' W 080°07'3 6.0
2018-Jul-16 14:00N 26°06' W 080°04'3 6.5
2018-Jul-16 13:30N 26°08' W 080°01'3 5.6
2018-Jul-16 13:00N 26°10' W 079°59'2 3.2
2018-Jul-16 12:30N 26°11' W 079°58'1 2.9
2018-Jul-16 12:00N 26°12' W 079°57'5 9.2
2018-Jul-16 11:30N 26°12' W 079°51'4 8.7
2018-Jul-16 11:00N 26°13' W 079°47'4 8.9
2018-Jul-16 10:31N 26°15' W 079°42'5 9.1
2018-Jul-16 09:57N 26°17' W 079°37'4 9.3
2018-Jul-16 09:30N 26°19' W 079°33'612.6
2018-Jul-16 09:00N 26°15' W 079°28'612.5
2018-Jul-16 08:30N 26°11' W 079°22'9 0.3
2018-Jul-14 23:16N 26°07' W 079°31'310.7
2018-Jul-14 22:59N 26°07' W 079°35'510.3
2018-Jul-14 22:30N 26°07' W 079°40'510.6
2018-Jul-14 22:00N 26°07' W 079°46'611.3
2018-Jul-14 21:30N 26°06' W 079°52'611.2
2018-Jul-14 21:00N 26°05' W 079°58'511.0
2018-Jul-14 20:30N 26°05' W 080°04'2 4.6
2018-Jul-14 20:00N 26°04' W 080°07'0 0.3
2018-Jul-14 19:23N 26°04' W 080°07'0 0.0
2018-Jul-14 18:49N 26°04' W 080°07'0 0.0
2018-Jul-14 18:28N 26°04' W 080°07'0 0.0
2018-Jul-14 17:58N 26°04' W 080°07'0 0.0
2018-Jul-14 17:25N 26°04' W 080°07'0 0.0
2018-Jul-14 16:52N 26°04' W 080°07'0 0.0
2018-Jul-14 16:30N 26°04' W 080°07'0 0.0
2018-Jul-14 16:00N 26°04' W 080°07'0 0.0
2018-Jul-14 15:24N 26°04' W 080°07'0 0.0
2018-Jul-14 14:54N 26°04' W 080°07'0 0.1
2018-Jul-14 14:30N 26°04' W 080°07'4 4.0
2018-Jul-14 13:26N 26°08' W 080°04'0 0.1
2018-Jul-14 12:50N 26°08' W 080°04'0 0.0
2018-Jul-14 12:28N 26°08' W 080°04'0 0.0
2018-Jul-14 11:58N 26°08' W 080°04'0 0.0
2018-Jul-14 11:25N 26°08' W 080°04'0 0.0
2018-Jul-14 10:52N 26°08' W 080°04'0 0.0
2018-Jul-14 10:18N 26°08' W 080°04'0 0.0
2018-Jul-14 10:00N 26°08' W 080°04'0 0.0
2018-Jul-14 09:30N 26°08' W 080°04'0 0.0
2018-Jul-14 08:59N 26°08' W 080°04'0 0.0
2018-Jul-14 08:21N 26°08' W 080°04'0 0.0
2018-Jul-14 07:47N 26°08' W 080°04'0 0.0
2018-Jul-14 07:29N 26°08' W 080°04'0 0.0
2018-Jul-14 06:59N 26°08' W 080°04'0 0.0
2018-Jul-14 06:23N 26°08' W 080°04'0 0.0
2018-Jul-14 05:49N 26°08' W 080°04'0 0.0
2018-Jul-14 05:28N 26°08' W 080°04'0 0.0
2018-Jul-14 04:58N 26°08' W 080°04'0 0.0
2018-Jul-14 04:25N 26°08' W 080°04'0 0.0
2018-Jul-14 03:52N 26°08' W 080°04'0 0.0
2018-Jul-14 03:30N 26°08' W 080°04'0 0.0
2018-Jul-14 03:00N 26°08' W 080°04'0 0.0
2018-Jul-14 02:24N 26°08' W 080°04'0 0.0
2018-Jul-14 01:54N 26°08' W 080°04'0 0.0
2018-Jul-14 01:17N 26°08' W 080°04'0 0.1
2018-Jul-14 00:59N 26°08' W 080°04'0 0.0
2018-Jul-14 00:29N 26°08' W 080°04'0 0.1
2018-Jul-13 23:56N 26°08' W 080°04'0 0.0
2018-Jul-13 23:23N 26°08' W 080°04'0 0.1
2018-Jul-13 22:49N 26°08' W 080°04'0 0.1
2018-Jul-13 22:28N 26°08' W 080°04'0 0.0
2018-Jul-13 21:58N 26°08' W 080°04'0 0.0
2018-Jul-13 21:22N 26°08' W 080°04'0 0.0
2018-Jul-13 20:52N 26°08' W 080°04'0 0.0
2018-Jul-13 20:30N 26°08' W 080°04'0 0.0
2018-Jul-13 20:00N 26°08' W 080°04'0 0.0
2018-Jul-13 19:27N 26°08' W 080°04'0 0.0
2018-Jul-13 18:54N 26°08' W 080°04'0 0.0
2018-Jul-13 18:20N 26°08' W 080°04'0 0.1
2018-Jul-13 17:59N 26°08' W 080°04'0 0.0
2018-Jul-13 17:29N 26°08' W 080°04'0 0.0
2018-Jul-13 16:56N 26°08' W 080°04'0 0.0
2018-Jul-13 16:23N 26°08' W 080°04'0 0.0
2018-Jul-13 15:49N 26°08' W 080°04'0 0.0
2018-Jul-13 15:28N 26°08' W 080°04'0 0.1
2018-Jul-13 14:58N 26°08' W 080°04'0 0.0
2018-Jul-13 13:52N 26°08' W 080°04'0 0.0
2018-Jul-13 13:18N 26°08' W 080°04'0 0.0
2018-Jul-13 13:00N 26°08' W 080°04'0 0.0
2018-Jul-13 12:27N 26°08' W 080°04'0 0.0
2018-Jul-13 11:54N 26°08' W 080°04'0 0.0
2018-Jul-13 11:20N 26°08' W 080°04'0 0.0
2018-Jul-13 10:59N 26°08' W 080°04'0 0.0
2018-Jul-13 10:29N 26°08' W 080°04'0 0.0
2018-Jul-13 09:56N 26°08' W 080°04'0 0.0
2018-Jul-13 09:23N 26°08' W 080°04'0 0.0
2018-Jul-13 08:49N 26°08' W 080°04'0 0.0
2018-Jul-13 08:28N 26°08' W 080°04'0 0.0
2018-Jul-13 07:58N 26°08' W 080°04'0 0.0
2018-Jul-13 07:28N 26°08' W 080°04'0 0.0
2018-Jul-13 06:52N 26°08' W 080°04'0 0.0
2018-Jul-13 06:30N 26°08' W 080°04'0 0.0
2018-Jul-13 06:00N 26°08' W 080°04'0 0.0
2018-Jul-13 05:27N 26°08' W 080°04'0 0.0
2018-Jul-13 04:54N 26°08' W 080°04'0 0.0
2018-Jul-13 04:30N 26°08' W 080°04'0 0.0
2018-Jul-13 03:56N 26°08' W 080°04'  

Dump ship's entire track history